sensor_id;sensor_type;location;lat;lon;timestamp;temperature;humidity
11944;DHT22;6031;50.220;10.122;2023-10-08T00:01:50;16.10;1.00
11944;DHT22;6031;50.220;10.122;2023-10-08T00:04:16;16.10;1.00
11944;DHT22;6031;50.220;10.122;2023-10-08T00:06:45;16.10;1.00
11944;DHT22;6031;50.220;10.122;2023-10-08T00:09:11;16.10;1.00
11944;DHT22;6031;50.220;10.122;2023-10-08T00:11:38;16.10;1.00
11944;DHT22;6031;50.220;10.122;2023-10-08T00:14:04;16.10;1.00
11944;DHT22;6031;50.220;10.122;2023-10-08T00:16:41;16.10;1.00
11944;DHT22;6031;50.220;10.122;2023-10-08T00:19:07;16.10;1.00
11944;DHT22;6031;50.220;10.122;2023-10-08T00:21:40;16.10;1.00
11944;DHT22;6031;50.220;10.122;2023-10-08T00:24:09;16.10;1.00
11944;DHT22;6031;50.220;10.122;2023-10-08T00:26:35;16.20;1.00
11944;DHT22;6031;50.220;10.122;2023-10-08T00:29:06;16.20;99.90
11944;DHT22;6031;50.220;10.122;2023-10-08T00:31:40;16.30;99.90
11944;DHT22;6031;50.220;10.122;2023-10-08T00:34:06;16.30;99.90
11944;DHT22;6031;50.220;10.122;2023-10-08T00:36:37;16.40;97.10
11944;DHT22;6031;50.220;10.122;2023-10-08T00:39:04;16.40;99.90
11944;DHT22;6031;50.220;10.122;2023-10-08T00:41:33;16.40;99.90
11944;DHT22;6031;50.220;10.122;2023-10-08T00:43:59;16.40;99.90
11944;DHT22;6031;50.220;10.122;2023-10-08T00:46:26;16.30;99.90
11944;DHT22;6031;50.220;10.122;2023-10-08T00:48:57;16.30;99.90
11944;DHT22;6031;50.220;10.122;2023-10-08T00:51:24;16.30;99.90
11944;DHT22;6031;50.220;10.122;2023-10-08T00:54:09;16.30;99.90
11944;DHT22;6031;50.220;10.122;2023-10-08T00:56:36;16.20;99.90
11944;DHT22;6031;50.220;10.122;2023-10-08T00:59:16;16.20;99.90
11944;DHT22;6031;50.220;10.122;2023-10-08T01:01:51;16.20;1.00
11944;DHT22;6031;50.220;10.122;2023-10-08T01:04:18;16.20;1.00
11944;DHT22;6031;50.220;10.122;2023-10-08T01:06:53;16.30;99.90
11944;DHT22;6031;50.220;10.122;2023-10-08T01:09:26;16.30;99.90
11944;DHT22;6031;50.220;10.122;2023-10-08T01:12:16;16.30;99.90
11944;DHT22;6031;50.220;10.122;2023-10-08T01:14:59;16.30;99.90
11944;DHT22;6031;50.220;10.122;2023-10-08T01:17:34;16.40;99.90
11944;DHT22;6031;50.220;10.122;2023-10-08T01:20:11;16.30;99.90
11944;DHT22;6031;50.220;10.122;2023-10-08T01:22:55;16.30;99.90
11944;DHT22;6031;50.220;10.122;2023-10-08T01:25:22;16.20;99.90
11944;DHT22;6031;50.220;10.122;2023-10-08T01:27:55;16.20;1.00
11944;DHT22;6031;50.220;10.122;2023-10-08T01:30:21;16.20;1.00
11944;DHT22;6031;50.220;10.122;2023-10-08T01:32:46;16.10;1.00
11944;DHT22;6031;50.220;10.122;2023-10-08T01:35:13;16.10;1.00
11944;DHT22;6031;50.220;10.122;2023-10-08T01:38:08;16.00;1.00
11944;DHT22;6031;50.220;10.122;2023-10-08T01:40:40;16.00;1.00
11944;DHT22;6031;50.220;10.122;2023-10-08T01:43:05;16.00;1.00
11944;DHT22;6031;50.220;10.122;2023-10-08T01:45:31;16.00;1.00
11944;DHT22;6031;50.220;10.122;2023-10-08T01:47:58;16.00;1.00
11944;DHT22;6031;50.220;10.122;2023-10-08T01:50:23;16.10;1.00
11944;DHT22;6031;50.220;10.122;2023-10-08T01:52:55;16.10;1.00
11944;DHT22;6031;50.220;10.122;2023-10-08T01:55:20;16.10;1.00
11944;DHT22;6031;50.220;10.122;2023-10-08T01:57:49;16.00;1.00
11944;DHT22;6031;50.220;10.122;2023-10-08T02:00:15;16.00;1.00
11944;DHT22;6031;50.220;10.122;2023-10-08T02:02:48;16.00;1.00
11944;DHT22;6031;50.220;10.122;2023-10-08T02:05:15;16.00;1.00
11944;DHT22;6031;50.220;10.122;2023-10-08T02:07:41;16.00;1.00
11944;DHT22;6031;50.220;10.122;2023-10-08T02:10:09;16.00;1.00
11944;DHT22;6031;50.220;10.122;2023-10-08T02:12:37;16.00;1.00
11944;DHT22;6031;50.220;10.122;2023-10-08T02:15:03;16.00;1.00
11944;DHT22;6031;50.220;10.122;2023-10-08T02:17:29;16.00;1.00
11944;DHT22;6031;50.220;10.122;2023-10-08T02:19:55;15.90;1.00
11944;DHT22;6031;50.220;10.122;2023-10-08T02:22:20;15.90;1.00
11944;DHT22;6031;50.220;10.122;2023-10-08T02:24:46;15.80;1.00
11944;DHT22;6031;50.220;10.122;2023-10-08T02:27:13;15.80;4.30
11944;DHT22;6031;50.220;10.122;2023-10-08T02:29:40;15.80;61.70
11944;DHT22;6031;50.220;10.122;2023-10-08T02:32:07;15.70;99.90
11944;DHT22;6031;50.220;10.122;2023-10-08T02:34:33;15.70;1.00
11944;DHT22;6031;50.220;10.122;2023-10-08T02:36:58;15.60;99.90
11944;DHT22;6031;50.220;10.122;2023-10-08T02:39:25;15.50;1.00
11944;DHT22;6031;50.220;10.122;2023-10-08T02:41:55;15.40;1.00
11944;DHT22;6031;50.220;10.122;2023-10-08T02:44:23;15.40;99.90
11944;DHT22;6031;50.220;10.122;2023-10-08T02:46:49;15.50;1.00
11944;DHT22;6031;50.220;10.122;2023-10-08T02:49:18;15.50;1.00
11944;DHT22;6031;50.220;10.122;2023-10-08T02:51:54;15.50;1.00
11944;DHT22;6031;50.220;10.122;2023-10-08T02:54:22;15.40;1.00
11944;DHT22;6031;50.220;10.122;2023-10-08T02:56:57;15.50;1.00
11944;DHT22;6031;50.220;10.122;2023-10-08T02:59:28;15.50;1.00
11944;DHT22;6031;50.220;10.122;2023-10-08T03:01:53;15.60;99.90
11944;DHT22;6031;50.220;10.122;2023-10-08T03:04:21;15.60;99.90
11944;DHT22;6031;50.220;10.122;2023-10-08T03:06:49;15.70;18.00
11944;DHT22;6031;50.220;10.122;2023-10-08T03:09:22;15.70;1.00
11944;DHT22;6031;50.220;10.122;2023-10-08T03:11:52;15.80;1.00
11944;DHT22;6031;50.220;10.122;2023-10-08T03:14:20;15.80;1.00
11944;DHT22;6031;50.220;10.122;2023-10-08T03:16:53;15.90;1.00
11944;DHT22;6031;50.220;10.122;2023-10-08T03:19:21;15.90;1.00
11944;DHT22;6031;50.220;10.122;2023-10-08T03:21:48;15.90;1.00
11944;DHT22;6031;50.220;10.122;2023-10-08T03:24:19;15.80;1.00
11944;DHT22;6031;50.220;10.122;2023-10-08T03:27:05;15.80;1.00
11944;DHT22;6031;50.220;10.122;2023-10-08T03:29:35;15.70;23.50
11944;DHT22;6031;50.220;10.122;2023-10-08T03:32:11;15.80;1.00
11944;DHT22;6031;50.220;10.122;2023-10-08T03:34:48;15.80;1.00
11944;DHT22;6031;50.220;10.122;2023-10-08T03:37:16;15.80;39.90
11944;DHT22;6031;50.220;10.122;2023-10-08T03:39:55;15.80;1.00
11944;DHT22;6031;50.220;10.122;2023-10-08T03:42:28;15.80;1.00
11944;DHT22;6031;50.220;10.122;2023-10-08T03:45:06;15.90;1.00
11944;DHT22;6031;50.220;10.122;2023-10-08T03:47:38;15.90;1.00
11944;DHT22;6031;50.220;10.122;2023-10-08T03:50:07;15.80;1.00
11944;DHT22;6031;50.220;10.122;2023-10-08T03:52:38;15.80;1.00
11944;DHT22;6031;50.220;10.122;2023-10-08T03:55:05;15.80;1.00
11944;DHT22;6031;50.220;10.122;2023-10-08T03:57:52;15.80;1.00
11944;DHT22;6031;50.220;10.122;2023-10-08T04:00:22;15.70;1.00
11944;DHT22;6031;50.220;10.122;2023-10-08T04:02:55;15.70;1.00
11944;DHT22;6031;50.220;10.122;2023-10-08T04:05:22;15.60;37.10
11944;DHT22;6031;50.220;10.122;2023-10-08T04:07:57;15.50;99.90
11944;DHT22;6031;50.220;10.122;2023-10-08T04:10:29;15.40;99.90
11944;DHT22;6031;50.220;10.122;2023-10-08T04:13:07;15.40;1.00
11944;DHT22;6031;50.220;10.122;2023-10-08T04:15:35;15.40;1.00
11944;DHT22;6031;50.220;10.122;2023-10-08T04:18:08;15.40;1.00
11944;DHT22;6031;50.220;10.122;2023-10-08T04:20:34;15.30;1.00
11944;DHT22;6031;50.220;10.122;2023-10-08T04:23:20;15.30;24.30
11944;DHT22;6031;50.220;10.122;2023-10-08T04:25:48;15.30;1.00
11944;DHT22;6031;50.220;10.122;2023-10-08T04:28:20;15.30;1.00
11944;DHT22;6031;50.220;10.122;2023-10-08T04:30:47;15.20;1.00
11944;DHT22;6031;50.220;10.122;2023-10-08T04:33:18;15.20;99.90
11944;DHT22;6031;50.220;10.122;2023-10-08T04:35:45;15.30;99.90
11944;DHT22;6031;50.220;10.122;2023-10-08T04:38:24;15.40;1.00
11944;DHT22;6031;50.220;10.122;2023-10-08T04:41:02;15.40;1.00
11944;DHT22;6031;50.220;10.122;2023-10-08T04:43:34;15.40;1.00
11944;DHT22;6031;50.220;10.122;2023-10-08T04:46:03;15.40;1.00
11944;DHT22;6031;50.220;10.122;2023-10-08T04:48:48;15.50;99.90
11944;DHT22;6031;50.220;10.122;2023-10-08T04:51:21;15.40;99.90
11944;DHT22;6031;50.220;10.122;2023-10-08T04:53:48;15.40;1.00
11944;DHT22;6031;50.220;10.122;2023-10-08T04:56:14;15.40;1.00
11944;DHT22;6031;50.220;10.122;2023-10-08T04:58:44;15.40;1.00
11944;DHT22;6031;50.220;10.122;2023-10-08T05:01:17;15.30;1.00
11944;DHT22;6031;50.220;10.122;2023-10-08T05:03:50;15.20;99.90
11944;DHT22;6031;50.220;10.122;2023-10-08T05:06:28;15.10;1.00
11944;DHT22;6031;50.220;10.122;2023-10-08T05:09:21;15.10;1.00
11944;DHT22;6031;50.220;10.122;2023-10-08T05:11:52;15.10;1.00
11944;DHT22;6031;50.220;10.122;2023-10-08T05:14:24;14.90;99.90
11944;DHT22;6031;50.220;10.122;2023-10-08T05:17:04;14.90;99.90
11944;DHT22;6031;50.220;10.122;2023-10-08T05:19:38;14.90;99.90
11944;DHT22;6031;50.220;10.122;2023-10-08T05:22:10;14.90;1.00
11944;DHT22;6031;50.220;10.122;2023-10-08T05:25:00;14.80;1.00
11944;DHT22;6031;50.220;10.122;2023-10-08T05:27:43;14.70;1.00
11944;DHT22;6031;50.220;10.122;2023-10-08T05:30:21;14.70;99.90
11944;DHT22;6031;50.220;10.122;2023-10-08T05:33:06;14.70;1.00
11944;DHT22;6031;50.220;10.122;2023-10-08T05:35:39;14.70;46.70
11944;DHT22;6031;50.220;10.122;2023-10-08T05:38:12;14.70;1.00
11944;DHT22;6031;50.220;10.122;2023-10-08T05:40:47;14.80;99.90
11944;DHT22;6031;50.220;10.122;2023-10-08T05:43:28;14.80;7.40
11944;DHT22;6031;50.220;10.122;2023-10-08T05:46:04;14.80;67.60
11944;DHT22;6031;50.220;10.122;2023-10-08T05:51:34;15.00;99.90
11944;DHT22;6031;50.220;10.122;2023-10-08T05:54:20;15.10;1.00
11944;DHT22;6031;50.220;10.122;2023-10-08T05:56:59;15.20;99.90
11944;DHT22;6031;50.220;10.122;2023-10-08T05:59:49;15.40;1.00
11944;DHT22;6031;50.220;10.122;2023-10-08T06:02:24;15.50;1.00
11944;DHT22;6031;50.220;10.122;2023-10-08T06:04:57;15.60;99.90
11944;DHT22;6031;50.220;10.122;2023-10-08T06:10:26;15.60;99.90
11944;DHT22;6031;50.220;10.122;2023-10-08T06:13:08;15.60;99.90
11944;DHT22;6031;50.220;10.122;2023-10-08T06:18:28;15.50;1.00
11944;DHT22;6031;50.220;10.122;2023-10-08T06:21:00;15.50;1.00
11944;DHT22;6031;50.220;10.122;2023-10-08T06:23:27;15.50;1.00
11944;DHT22;6031;50.220;10.122;2023-10-08T06:25:55;15.60;1.00
11944;DHT22;6031;50.220;10.122;2023-10-08T06:28:37;15.60;1.00
11944;DHT22;6031;50.220;10.122;2023-10-08T06:31:04;15.50;1.00
11944;DHT22;6031;50.220;10.122;2023-10-08T06:33:40;15.50;1.00
11944;DHT22;6031;50.220;10.122;2023-10-08T06:36:06;15.50;1.00
11944;DHT22;6031;50.220;10.122;2023-10-08T06:38:45;15.60;1.00
11944;DHT22;6031;50.220;10.122;2023-10-08T06:41:14;15.70;1.00
11944;DHT22;6031;50.220;10.122;2023-10-08T06:43:44;15.80;99.90
11944;DHT22;6031;50.220;10.122;2023-10-08T06:46:17;16.00;99.90
11944;DHT22;6031;50.220;10.122;2023-10-08T06:48:47;16.10;1.40
11944;DHT22;6031;50.220;10.122;2023-10-08T06:51:15;16.10;1.00
11944;DHT22;6031;50.220;10.122;2023-10-08T06:53:45;16.10;1.00
11944;DHT22;6031;50.220;10.122;2023-10-08T06:56:14;16.20;1.00
11944;DHT22;6031;50.220;10.122;2023-10-08T06:58:41;16.20;1.00
11944;DHT22;6031;50.220;10.122;2023-10-08T07:01:16;16.20;1.00
11944;DHT22;6031;50.220;10.122;2023-10-08T07:03:51;16.20;1.00
11944;DHT22;6031;50.220;10.122;2023-10-08T07:06:18;16.30;1.00
11944;DHT22;6031;50.220;10.122;2023-10-08T07:08:56;16.30;1.00
11944;DHT22;6031;50.220;10.122;2023-10-08T07:11:25;16.50;99.90
11944;DHT22;6031;50.220;10.122;2023-10-08T07:13:52;16.70;99.90
11944;DHT22;6031;50.220;10.122;2023-10-08T07:16:18;16.90;97.50
11944;DHT22;6031;50.220;10.122;2023-10-08T07:18:44;17.10;1.00
11944;DHT22;6031;50.220;10.122;2023-10-08T07:21:20;17.20;1.00
11944;DHT22;6031;50.220;10.122;2023-10-08T07:23:58;17.50;1.00
11944;DHT22;6031;50.220;10.122;2023-10-08T07:26:29;17.70;1.00
11944;DHT22;6031;50.220;10.122;2023-10-08T07:29:06;18.00;99.90
11944;DHT22;6031;50.220;10.122;2023-10-08T07:31:38;18.00;99.90
11944;DHT22;6031;50.220;10.122;2023-10-08T07:34:07;18.10;99.90
11944;DHT22;6031;50.220;10.122;2023-10-08T07:36:44;18.10;99.90
11944;DHT22;6031;50.220;10.122;2023-10-08T07:39:10;18.20;99.90
11944;DHT22;6031;50.220;10.122;2023-10-08T07:41:51;18.10;99.90
11944;DHT22;6031;50.220;10.122;2023-10-08T07:44:20;17.90;99.90
11944;DHT22;6031;50.220;10.122;2023-10-08T07:46:52;17.90;99.90
11944;DHT22;6031;50.220;10.122;2023-10-08T07:49:20;18.00;99.90
11944;DHT22;6031;50.220;10.122;2023-10-08T07:51:46;18.10;99.90
11944;DHT22;6031;50.220;10.122;2023-10-08T07:54:27;18.20;99.90
11944;DHT22;6031;50.220;10.122;2023-10-08T07:57:00;18.10;53.30
11944;DHT22;6031;50.220;10.122;2023-10-08T07:59:35;17.90;99.90
11944;DHT22;6031;50.220;10.122;2023-10-08T08:02:07;17.60;99.90
11944;DHT22;6031;50.220;10.122;2023-10-08T08:04:36;17.40;99.90
11944;DHT22;6031;50.220;10.122;2023-10-08T08:07:01;17.40;99.90
11944;DHT22;6031;50.220;10.122;2023-10-08T08:09:29;17.40;99.90
11944;DHT22;6031;50.220;10.122;2023-10-08T08:11:55;17.50;1.00
11944;DHT22;6031;50.220;10.122;2023-10-08T08:14:22;17.40;1.00
11944;DHT22;6031;50.220;10.122;2023-10-08T08:16:50;17.60;1.00
11944;DHT22;6031;50.220;10.122;2023-10-08T08:19:16;17.60;1.00
11944;DHT22;6031;50.220;10.122;2023-10-08T08:21:45;17.60;99.90
11944;DHT22;6031;50.220;10.122;2023-10-08T08:24:12;17.50;1.00
11944;DHT22;6031;50.220;10.122;2023-10-08T08:26:39;17.40;1.00
11944;DHT22;6031;50.220;10.122;2023-10-08T08:29:27;17.40;1.00
11944;DHT22;6031;50.220;10.122;2023-10-08T08:31:53;17.60;1.00
11944;DHT22;6031;50.220;10.122;2023-10-08T08:34:22;17.90;1.00
11944;DHT22;6031;50.220;10.122;2023-10-08T08:36:49;18.20;99.90
11944;DHT22;6031;50.220;10.122;2023-10-08T08:39:16;18.30;99.90
11944;DHT22;6031;50.220;10.122;2023-10-08T08:42:08;18.30;99.90
11944;DHT22;6031;50.220;10.122;2023-10-08T08:44:38;18.20;99.90
11944;DHT22;6031;50.220;10.122;2023-10-08T08:47:14;18.20;99.90
11944;DHT22;6031;50.220;10.122;2023-10-08T08:49:43;18.30;99.90
11944;DHT22;6031;50.220;10.122;2023-10-08T08:52:10;18.20;99.90
11944;DHT22;6031;50.220;10.122;2023-10-08T08:54:36;18.40;99.90
11944;DHT22;6031;50.220;10.122;2023-10-08T08:57:03;18.50;83.00
11944;DHT22;6031;50.220;10.122;2023-10-08T08:59:30;18.50;8.10
11944;DHT22;6031;50.220;10.122;2023-10-08T09:01:59;18.60;1.00
11944;DHT22;6031;50.220;10.122;2023-10-08T09:04:32;18.60;1.00
11944;DHT22;6031;50.220;10.122;2023-10-08T09:07:01;18.50;99.90
11944;DHT22;6031;50.220;10.122;2023-10-08T09:09:33;18.30;94.10
11944;DHT22;6031;50.220;10.122;2023-10-08T09:11:59;18.30;99.90
11944;DHT22;6031;50.220;10.122;2023-10-08T09:14:26;18.40;99.90
11944;DHT22;6031;50.220;10.122;2023-10-08T09:16:53;18.50;99.90
11944;DHT22;6031;50.220;10.122;2023-10-08T09:19:19;18.80;26.80
11944;DHT22;6031;50.220;10.122;2023-10-08T09:24:31;18.90;1.00
11944;DHT22;6031;50.220;10.122;2023-10-08T09:26:59;18.90;1.00
11944;DHT22;6031;50.220;10.122;2023-10-08T09:29:25;19.10;1.00
11944;DHT22;6031;50.220;10.122;2023-10-08T09:31:59;19.40;1.00
11944;DHT22;6031;50.220;10.122;2023-10-08T09:34:30;19.70;1.00
11944;DHT22;6031;50.220;10.122;2023-10-08T09:36:57;20.00;1.00
11944;DHT22;6031;50.220;10.122;2023-10-08T09:39:25;20.40;99.90
11944;DHT22;6031;50.220;10.122;2023-10-08T09:41:54;19.90;99.90
11944;DHT22;6031;50.220;10.122;2023-10-08T09:44:22;19.80;1.00
11944;DHT22;6031;50.220;10.122;2023-10-08T09:46:53;19.60;1.00
11944;DHT22;6031;50.220;10.122;2023-10-08T09:49:28;19.40;1.00
11944;DHT22;6031;50.220;10.122;2023-10-08T09:51:55;19.20;1.00
11944;DHT22;6031;50.220;10.122;2023-10-08T09:54:24;19.10;1.00
11944;DHT22;6031;50.220;10.122;2023-10-08T09:56:53;19.10;1.00
11944;DHT22;6031;50.220;10.122;2023-10-08T09:59:20;19.10;1.00
11944;DHT22;6031;50.220;10.122;2023-10-08T10:01:46;19.20;1.00
11944;DHT22;6031;50.220;10.122;2023-10-08T10:04:22;19.20;1.00
11944;DHT22;6031;50.220;10.122;2023-10-08T10:06:49;19.10;1.00
11944;DHT22;6031;50.220;10.122;2023-10-08T10:09:23;18.90;63.60
11944;DHT22;6031;50.220;10.122;2023-10-08T10:11:50;19.00;99.90
11944;DHT22;6031;50.220;10.122;2023-10-08T10:14:17;19.00;46.00
11944;DHT22;6031;50.220;10.122;2023-10-08T10:16:45;19.00;20.60
11944;DHT22;6031;50.220;10.122;2023-10-08T10:19:17;18.80;99.90
11944;DHT22;6031;50.220;10.122;2023-10-08T10:21:46;19.00;35.60
11944;DHT22;6031;50.220;10.122;2023-10-08T10:24:36;18.90;99.90
11944;DHT22;6031;50.220;10.122;2023-10-08T10:27:14;18.90;1.00
11944;DHT22;6031;50.220;10.122;2023-10-08T10:29:43;19.00;1.40
11944;DHT22;6031;50.220;10.122;2023-10-08T10:32:12;19.10;24.90
11944;DHT22;6031;50.220;10.122;2023-10-08T10:34:43;19.10;1.00
11944;DHT22;6031;50.220;10.122;2023-10-08T10:37:09;19.10;1.00
11944;DHT22;6031;50.220;10.122;2023-10-08T10:39:54;19.20;1.00
11944;DHT22;6031;50.220;10.122;2023-10-08T10:42:26;19.10;1.00
11944;DHT22;6031;50.220;10.122;2023-10-08T10:44:54;18.30;99.90
11944;DHT22;6031;50.220;10.122;2023-10-08T10:47:21;18.10;99.90
11944;DHT22;6031;50.220;10.122;2023-10-08T10:49:48;17.50;1.00
11944;DHT22;6031;50.220;10.122;2023-10-08T10:52:40;17.40;1.00
11944;DHT22;6031;50.220;10.122;2023-10-08T10:55:18;17.00;1.00
11944;DHT22;6031;50.220;10.122;2023-10-08T10:57:49;16.90;1.00
11944;DHT22;6031;50.220;10.122;2023-10-08T11:00:25;16.80;1.00
11944;DHT22;6031;50.220;10.122;2023-10-08T11:03:02;16.60;1.00
11944;DHT22;6031;50.220;10.122;2023-10-08T11:05:32;16.50;1.00
11944;DHT22;6031;50.220;10.122;2023-10-08T11:07:59;16.60;1.00
11944;DHT22;6031;50.220;10.122;2023-10-08T11:10:37;16.50;1.00
11944;DHT22;6031;50.220;10.122;2023-10-08T11:13:11;16.40;1.00
11944;DHT22;6031;50.220;10.122;2023-10-08T11:15:41;16.20;22.10
11944;DHT22;6031;50.220;10.122;2023-10-08T11:18:11;16.20;1.00
11944;DHT22;6031;50.220;10.122;2023-10-08T11:20:37;16.30;1.00
11944;DHT22;6031;50.220;10.122;2023-10-08T11:23:06;16.10;1.00
11944;DHT22;6031;50.220;10.122;2023-10-08T11:25:57;16.10;1.00
11944;DHT22;6031;50.220;10.122;2023-10-08T11:30:59;16.20;1.00
11944;DHT22;6031;50.220;10.122;2023-10-08T11:33:34;16.20;1.00
11944;DHT22;6031;50.220;10.122;2023-10-08T11:36:02;16.30;1.00
11944;DHT22;6031;50.220;10.122;2023-10-08T11:38:40;16.30;1.00
11944;DHT22;6031;50.220;10.122;2023-10-08T11:41:11;16.30;1.00
11944;DHT22;6031;50.220;10.122;2023-10-08T11:43:39;16.20;1.00
11944;DHT22;6031;50.220;10.122;2023-10-08T11:46:05;16.40;1.00
11944;DHT22;6031;50.220;10.122;2023-10-08T11:48:30;16.40;1.00
11944;DHT22;6031;50.220;10.122;2023-10-08T11:51:01;16.30;1.00
11944;DHT22;6031;50.220;10.122;2023-10-08T11:53:30;16.40;1.00
11944;DHT22;6031;50.220;10.122;2023-10-08T11:55:57;16.30;1.00
11944;DHT22;6031;50.220;10.122;2023-10-08T11:58:23;16.20;1.00
11944;DHT22;6031;50.220;10.122;2023-10-08T12:01:02;16.30;1.00
11944;DHT22;6031;50.220;10.122;2023-10-08T12:03:29;16.30;1.00
11944;DHT22;6031;50.220;10.122;2023-10-08T12:05:54;16.20;1.00
11944;DHT22;6031;50.220;10.122;2023-10-08T12:08:24;16.10;1.00
11944;DHT22;6031;50.220;10.122;2023-10-08T12:10:53;15.90;1.00
11944;DHT22;6031;50.220;10.122;2023-10-08T12:13:20;15.60;1.80
11944;DHT22;6031;50.220;10.122;2023-10-08T12:15:54;15.50;99.90
11944;DHT22;6031;50.220;10.122;2023-10-08T12:18:33;15.30;99.90
11944;DHT22;6031;50.220;10.122;2023-10-08T12:21:05;15.40;99.90
11944;DHT22;6031;50.220;10.122;2023-10-08T12:23:38;15.30;99.90
11944;DHT22;6031;50.220;10.122;2023-10-08T12:26:04;15.40;99.90
11944;DHT22;6031;50.220;10.122;2023-10-08T12:28:33;15.40;99.90
11944;DHT22;6031;50.220;10.122;2023-10-08T12:30:59;15.50;99.90
11944;DHT22;6031;50.220;10.122;2023-10-08T12:33:26;15.60;99.90
11944;DHT22;6031;50.220;10.122;2023-10-08T12:35:52;15.70;98.60
11944;DHT22;6031;50.220;10.122;2023-10-08T12:38:19;15.60;1.00
11944;DHT22;6031;50.220;10.122;2023-10-08T12:40:50;15.50;1.00
11944;DHT22;6031;50.220;10.122;2023-10-08T12:43:23;15.50;1.00
11944;DHT22;6031;50.220;10.122;2023-10-08T12:45:53;15.40;99.90
11944;DHT22;6031;50.220;10.122;2023-10-08T12:50:45;15.60;1.00
11944;DHT22;6031;50.220;10.122;2023-10-08T12:53:11;15.70;1.00
11944;DHT22;6031;50.220;10.122;2023-10-08T12:55:38;15.70;1.00
11944;DHT22;6031;50.220;10.122;2023-10-08T12:58:07;15.70;1.00
11944;DHT22;6031;50.220;10.122;2023-10-08T13:00:36;15.80;1.00
11944;DHT22;6031;50.220;10.122;2023-10-08T13:03:03;15.60;1.00
11944;DHT22;6031;50.220;10.122;2023-10-08T13:05:31;15.70;1.00
11944;DHT22;6031;50.220;10.122;2023-10-08T13:07:59;15.70;1.00
11944;DHT22;6031;50.220;10.122;2023-10-08T13:10:35;15.70;1.00
11944;DHT22;6031;50.220;10.122;2023-10-08T13:13:00;15.80;1.00
11944;DHT22;6031;50.220;10.122;2023-10-08T13:15:26;15.60;1.00
11944;DHT22;6031;50.220;10.122;2023-10-08T13:17:52;15.60;1.00
11944;DHT22;6031;50.220;10.122;2023-10-08T13:22:44;15.70;1.00
11944;DHT22;6031;50.220;10.122;2023-10-08T13:25:11;15.70;1.00
11944;DHT22;6031;50.220;10.122;2023-10-08T13:27:38;15.90;1.00
11944;DHT22;6031;50.220;10.122;2023-10-08T13:30:08;15.90;1.00
11944;DHT22;6031;50.220;10.122;2023-10-08T13:32:37;16.00;1.00
11944;DHT22;6031;50.220;10.122;2023-10-08T13:35:04;16.00;1.00
11944;DHT22;6031;50.220;10.122;2023-10-08T13:37:32;16.10;1.00
11944;DHT22;6031;50.220;10.122;2023-10-08T13:39:58;15.90;1.00
11944;DHT22;6031;50.220;10.122;2023-10-08T13:42:23;15.90;99.90
11944;DHT22;6031;50.220;10.122;2023-10-08T13:44:49;15.70;99.90
11944;DHT22;6031;50.220;10.122;2023-10-08T13:47:15;15.70;1.00
11944;DHT22;6031;50.220;10.122;2023-10-08T13:49:41;15.70;1.00
11944;DHT22;6031;50.220;10.122;2023-10-08T13:52:08;15.80;1.00
11944;DHT22;6031;50.220;10.122;2023-10-08T13:54:34;15.70;1.00
11944;DHT22;6031;50.220;10.122;2023-10-08T13:57:04;15.80;1.00
11944;DHT22;6031;50.220;10.122;2023-10-08T13:59:34;15.80;1.00
11944;DHT22;6031;50.220;10.122;2023-10-08T14:02:00;15.80;1.00
11944;DHT22;6031;50.220;10.122;2023-10-08T14:04:27;15.60;1.00
11944;DHT22;6031;50.220;10.122;2023-10-08T14:06:56;15.60;1.00
11944;DHT22;6031;50.220;10.122;2023-10-08T14:09:24;15.60;1.00
11944;DHT22;6031;50.220;10.122;2023-10-08T14:12:02;15.70;1.00
11944;DHT22;6031;50.220;10.122;2023-10-08T14:14:29;15.80;1.00
11944;DHT22;6031;50.220;10.122;2023-10-08T14:17:00;15.90;1.00
11944;DHT22;6031;50.220;10.122;2023-10-08T14:19:36;16.00;1.00
11944;DHT22;6031;50.220;10.122;2023-10-08T14:22:11;15.70;1.00
11944;DHT22;6031;50.220;10.122;2023-10-08T14:24:39;15.60;1.00
11944;DHT22;6031;50.220;10.122;2023-10-08T14:27:05;15.70;1.00
11944;DHT22;6031;50.220;10.122;2023-10-08T14:29:40;15.60;47.00
11944;DHT22;6031;50.220;10.122;2023-10-08T14:32:09;15.60;99.90
11944;DHT22;6031;50.220;10.122;2023-10-08T14:34:38;15.70;99.90
11944;DHT22;6031;50.220;10.122;2023-10-08T14:37:13;15.80;99.90
11944;DHT22;6031;50.220;10.122;2023-10-08T14:39:58;15.80;44.20
11944;DHT22;6031;50.220;10.122;2023-10-08T14:42:42;15.70;1.00
11944;DHT22;6031;50.220;10.122;2023-10-08T14:45:28;15.60;1.00
11944;DHT22;6031;50.220;10.122;2023-10-08T14:47:57;15.60;1.00
11944;DHT22;6031;50.220;10.122;2023-10-08T14:50:24;15.60;62.30
11944;DHT22;6031;50.220;10.122;2023-10-08T14:52:53;15.70;1.00
11944;DHT22;6031;50.220;10.122;2023-10-08T14:55:20;15.80;1.00
11944;DHT22;6031;50.220;10.122;2023-10-08T14:57:48;15.80;1.00
11944;DHT22;6031;50.220;10.122;2023-10-08T15:00:18;15.90;1.00
11944;DHT22;6031;50.220;10.122;2023-10-08T15:02:53;15.80;1.00
11944;DHT22;6031;50.220;10.122;2023-10-08T15:05:20;15.80;1.00
11944;DHT22;6031;50.220;10.122;2023-10-08T15:07:47;15.70;1.00
11944;DHT22;6031;50.220;10.122;2023-10-08T15:10:14;15.70;99.90
11944;DHT22;6031;50.220;10.122;2023-10-08T15:12:40;15.60;99.90
11944;DHT22;6031;50.220;10.122;2023-10-08T15:15:05;15.60;99.90
11944;DHT22;6031;50.220;10.122;2023-10-08T15:17:42;15.60;99.90
11944;DHT22;6031;50.220;10.122;2023-10-08T15:20:09;15.50;1.00
11944;DHT22;6031;50.220;10.122;2023-10-08T15:22:46;15.60;99.90
11944;DHT22;6031;50.220;10.122;2023-10-08T15:25:13;15.60;99.90
11944;DHT22;6031;50.220;10.122;2023-10-08T15:27:40;15.50;1.00
11944;DHT22;6031;50.220;10.122;2023-10-08T15:30:08;15.40;1.00
11944;DHT22;6031;50.220;10.122;2023-10-08T15:32:39;15.40;1.00
11944;DHT22;6031;50.220;10.122;2023-10-08T15:35:08;15.40;1.00
11944;DHT22;6031;50.220;10.122;2023-10-08T15:37:35;15.40;1.00
11944;DHT22;6031;50.220;10.122;2023-10-08T15:40:00;15.40;1.00
11944;DHT22;6031;50.220;10.122;2023-10-08T15:42:32;15.40;1.00
11944;DHT22;6031;50.220;10.122;2023-10-08T15:44:57;15.40;1.00
11944;DHT22;6031;50.220;10.122;2023-10-08T15:47:23;15.30;1.00
11944;DHT22;6031;50.220;10.122;2023-10-08T15:49:48;15.30;1.00
11944;DHT22;6031;50.220;10.122;2023-10-08T15:52:14;15.20;1.00
11944;DHT22;6031;50.220;10.122;2023-10-08T15:54:41;15.20;63.20
11944;DHT22;6031;50.220;10.122;2023-10-08T15:57:09;15.20;99.90
11944;DHT22;6031;50.220;10.122;2023-10-08T15:59:34;15.10;99.90
11944;DHT22;6031;50.220;10.122;2023-10-08T16:02:00;15.20;99.90
11944;DHT22;6031;50.220;10.122;2023-10-08T16:04:25;15.10;99.90
11944;DHT22;6031;50.220;10.122;2023-10-08T16:06:53;15.00;99.90
11944;DHT22;6031;50.220;10.122;2023-10-08T16:09:19;15.00;1.00
11944;DHT22;6031;50.220;10.122;2023-10-08T16:11:47;14.90;1.00
11944;DHT22;6031;50.220;10.122;2023-10-08T16:14:13;15.00;1.00
11944;DHT22;6031;50.220;10.122;2023-10-08T16:16:38;14.90;1.00
11944;DHT22;6031;50.220;10.122;2023-10-08T16:19:04;14.90;1.00
11944;DHT22;6031;50.220;10.122;2023-10-08T16:21:30;14.90;1.00